createdAt,value
2023-02-16T00:00:15.463Z,16.50
2023-02-16T00:01:15.627Z,16.60
2023-02-16T00:02:15.844Z,16.90
2023-02-16T00:03:15.999Z,16.30
2023-02-16T00:04:16.162Z,16.70
2023-02-16T00:05:16.335Z,15.70
2023-02-16T00:06:16.504Z,16.00
2023-02-16T00:07:16.655Z,15.90
2023-02-16T00:08:16.838Z,15.40
2023-02-16T00:09:17.023Z,16.30
2023-02-16T00:10:17.202Z,16.20
2023-02-16T00:12:16.772Z,15.80
2023-02-16T00:13:16.944Z,16.00
2023-02-16T00:14:17.123Z,16.00
2023-02-16T00:15:17.273Z,16.30
2023-02-16T00:16:17.516Z,16.10
2023-02-16T00:17:17.615Z,15.80
2023-02-16T00:18:17.818Z,15.80
2023-02-16T00:19:17.975Z,15.50
2023-02-16T00:20:18.401Z,16.40
2023-02-16T00:21:18.330Z,15.90
2023-02-16T00:22:18.496Z,15.30
2023-02-16T00:23:18.662Z,15.10
2023-02-16T00:24:18.826Z,16.10
2023-02-16T00:25:19.041Z,15.70
2023-02-16T00:26:19.209Z,15.80
2023-02-16T00:27:19.335Z,15.60
2023-02-16T00:28:19.510Z,16.10
2023-02-16T00:29:19.668Z,15.20
2023-02-16T00:30:19.953Z,15.60
2023-02-16T00:31:20.071Z,14.90
2023-02-16T00:32:20.323Z,15.30
2023-02-16T00:33:20.352Z,15.20
2023-02-16T00:34:20.526Z,14.90
2023-02-16T00:35:20.689Z,15.10
2023-02-16T00:36:20.832Z,14.90
2023-02-16T00:37:21.021Z,15.20
2023-02-16T00:38:21.210Z,14.80
2023-02-16T00:39:21.372Z,15.30
2023-02-16T00:40:21.517Z,14.50
2023-02-16T00:41:21.703Z,14.60
2023-02-16T00:42:21.855Z,14.50
2023-02-16T00:43:22.053Z,14.00
2023-02-16T00:44:22.219Z,14.40
2023-02-16T00:45:22.407Z,14.00
2023-02-16T00:46:22.606Z,13.90
2023-02-16T00:47:22.771Z,14.00
2023-02-16T00:48:22.910Z,13.90
2023-02-16T00:49:23.107Z,13.50
2023-02-16T00:50:23.288Z,13.80
2023-02-16T00:51:26.037Z,13.80
2023-02-16T00:52:23.651Z,13.40
2023-02-16T00:53:23.817Z,14.40
2023-02-16T00:54:24.022Z,14.10
2023-02-16T00:55:24.180Z,13.70
2023-02-16T00:56:24.341Z,13.90
2023-02-16T00:57:24.513Z,14.10
2023-02-16T00:58:24.686Z,13.70
2023-02-16T00:59:24.900Z,14.00
2023-02-16T01:00:25.029Z,13.40
2023-02-16T01:01:25.250Z,14.20
2023-02-16T01:02:25.381Z,13.90
2023-02-16T01:03:25.544Z,13.80
2023-02-16T01:04:25.829Z,13.10
2023-02-16T01:05:25.890Z,13.70
2023-02-16T01:06:26.044Z,13.10
2023-02-16T01:07:26.228Z,13.00
2023-02-16T01:08:26.396Z,13.70
2023-02-16T01:09:26.597Z,13.50
2023-02-16T01:10:26.726Z,13.30
2023-02-16T01:11:26.903Z,13.50
2023-02-16T01:12:27.067Z,13.80
2023-02-16T01:13:27.234Z,13.10
2023-02-16T01:14:27.445Z,13.00
2023-02-16T01:15:27.636Z,12.80
2023-02-16T01:16:27.755Z,13.60
2023-02-16T01:17:27.907Z,12.70
2023-02-16T01:18:28.087Z,12.90
2023-02-16T01:19:28.292Z,13.10
2023-02-16T01:20:28.413Z,12.80
2023-02-16T01:21:28.580Z,13.60
2023-02-16T01:22:28.758Z,13.30
2023-02-16T01:23:28.917Z,13.10
2023-02-16T01:24:29.093Z,12.90
2023-02-16T01:25:29.252Z,12.50
2023-02-16T01:26:29.437Z,13.20
2023-02-16T01:27:29.621Z,12.20
2023-02-16T01:28:29.800Z,11.80
2023-02-16T01:29:30.004Z,12.20
2023-02-16T01:30:30.229Z,12.80
2023-02-16T01:31:30.417Z,12.50
2023-02-16T01:32:30.461Z,12.60
2023-02-16T01:33:30.633Z,12.50
2023-02-16T01:34:30.813Z,12.80
2023-02-16T01:35:30.992Z,12.80
2023-02-16T01:36:31.154Z,12.00
2023-02-16T01:37:31.356Z,11.40
2023-02-16T01:38:31.512Z,12.00
2023-02-16T01:39:31.650Z,11.90
2023-02-16T01:40:31.856Z,12.30
2023-02-16T01:41:32.033Z,11.50
2023-02-16T01:42:32.187Z,12.20
2023-02-16T01:43:32.336Z,11.80
2023-02-16T01:44:32.530Z,12.30
2023-02-16T01:45:32.705Z,11.90
2023-02-16T01:46:33.000Z,11.50
2023-02-16T01:47:33.045Z,11.80
2023-02-16T01:48:33.223Z,12.20
2023-02-16T01:49:33.404Z,12.20
2023-02-16T01:50:33.571Z,11.40
2023-02-16T01:51:33.740Z,11.70
2023-02-16T01:52:33.913Z,11.70
2023-02-16T01:53:34.069Z,11.40
2023-02-16T01:54:34.257Z,11.50
2023-02-16T01:55:34.414Z,11.70
2023-02-16T01:56:34.593Z,11.90
2023-02-16T01:57:34.764Z,11.70
2023-02-16T01:58:34.923Z,10.90
2023-02-16T01:59:35.113Z,11.40
2023-02-16T02:00:35.269Z,11.40
2023-02-16T02:01:35.466Z,11.60
2023-02-16T02:02:35.632Z,11.30
2023-02-16T02:03:35.789Z,11.80
2023-02-16T02:04:35.951Z,10.70
2023-02-16T02:05:36.104Z,12.00
2023-02-16T02:06:36.272Z,11.50
2023-02-16T02:07:36.461Z,11.70
2023-02-16T02:08:36.628Z,11.30
2023-02-16T02:09:36.787Z,11.70
2023-02-16T02:10:36.951Z,11.80
2023-02-16T02:11:37.125Z,11.20
2023-02-16T02:12:37.315Z,12.20
2023-02-16T02:13:37.493Z,11.50
2023-02-16T02:14:37.635Z,11.20
2023-02-16T02:15:37.794Z,12.10
2023-02-16T02:16:38.005Z,11.40
2023-02-16T02:17:38.150Z,11.10
2023-02-16T02:18:38.313Z,11.00
2023-02-16T02:19:38.467Z,11.30
2023-02-16T02:20:38.664Z,11.00
2023-02-16T02:21:38.837Z,11.30
2023-02-16T02:22:38.967Z,11.20
2023-02-16T02:23:39.133Z,11.00
2023-02-16T02:24:39.294Z,11.30
2023-02-16T02:25:39.466Z,11.20
2023-02-16T02:26:39.652Z,11.50
2023-02-16T02:27:39.813Z,12.10
2023-02-16T02:28:39.987Z,11.30
2023-02-16T02:29:40.157Z,11.60
2023-02-16T02:30:40.339Z,11.10
2023-02-16T02:31:40.650Z,11.40
2023-02-16T02:32:40.674Z,11.00
2023-02-16T02:33:40.843Z,11.20
2023-02-16T02:34:41.029Z,11.10
2023-02-16T02:35:41.200Z,11.20
2023-02-16T02:36:41.391Z,10.70
2023-02-16T02:37:41.545Z,11.30
2023-02-16T02:38:41.717Z,10.30
2023-02-16T02:39:41.882Z,11.40
2023-02-16T02:40:42.070Z,11.60
2023-02-16T02:41:42.227Z,10.90
2023-02-16T02:42:42.407Z,11.20
2023-02-16T02:43:42.569Z,11.00
2023-02-16T02:44:42.735Z,11.00
2023-02-16T02:45:42.897Z,11.30
2023-02-16T02:46:43.131Z,10.60
2023-02-16T02:47:43.258Z,10.90
2023-02-16T02:48:43.400Z,10.50
2023-02-16T02:49:43.558Z,10.80
2023-02-16T02:50:43.765Z,11.50
2023-02-16T02:51:43.888Z,10.60
2023-02-16T02:52:44.059Z,10.90
2023-02-16T02:53:44.227Z,11.20
2023-02-16T02:54:44.408Z,10.70
2023-02-16T02:55:44.599Z,10.50
2023-02-16T02:56:44.760Z,11.20
2023-02-16T02:57:44.914Z,11.30
2023-02-16T02:58:45.099Z,11.00
2023-02-16T02:59:45.280Z,11.40
2023-02-16T03:00:45.492Z,11.20
2023-02-16T03:01:45.677Z,10.60
2023-02-16T03:02:45.798Z,10.80
2023-02-16T03:03:45.951Z,10.70
2023-02-16T03:04:46.122Z,11.20
2023-02-16T03:05:46.312Z,11.00
2023-02-16T03:06:46.463Z,10.80
2023-02-16T03:07:46.684Z,11.10
2023-02-16T03:08:46.833Z,10.80
2023-02-16T03:09:46.993Z,10.80
2023-02-16T03:10:47.176Z,11.10
2023-02-16T03:11:48.372Z,11.00
2023-02-16T03:12:47.543Z,10.80
2023-02-16T03:13:47.696Z,10.40
2023-02-16T03:14:47.963Z,11.40
2023-02-16T03:15:48.048Z,10.70
2023-02-16T03:16:48.319Z,10.90
2023-02-16T03:17:48.405Z,11.40
2023-02-16T03:18:48.570Z,10.60
2023-02-16T03:19:48.760Z,11.00
2023-02-16T03:20:48.926Z,10.50
2023-02-16T03:21:49.100Z,10.50
2023-02-16T03:22:49.262Z,11.20
2023-02-16T03:23:49.423Z,10.60
2023-02-16T03:24:49.639Z,10.90
2023-02-16T03:25:49.755Z,11.00
2023-02-16T03:26:49.934Z,10.70
2023-02-16T03:27:50.094Z,11.00
2023-02-16T03:28:50.281Z,10.40
2023-02-16T03:29:50.452Z,10.20
2023-02-16T03:30:50.650Z,11.40
2023-02-16T03:31:50.924Z,11.40
2023-02-16T03:32:51.003Z,10.60
2023-02-16T03:33:51.177Z,10.90
2023-02-16T03:34:51.333Z,10.30
2023-02-16T03:35:51.486Z,11.00
2023-02-16T03:36:51.662Z,10.90
2023-02-16T03:37:51.824Z,11.10
2023-02-16T03:38:52.029Z,10.80
2023-02-16T03:39:52.179Z,10.60
2023-02-16T03:40:52.335Z,10.00
2023-02-16T03:41:52.505Z,10.60
2023-02-16T03:42:52.676Z,11.20
2023-02-16T03:43:52.893Z,10.70
2023-02-16T03:44:53.007Z,10.30
2023-02-16T03:45:53.225Z,9.90
2023-02-16T03:46:53.356Z,11.20
2023-02-16T03:47:53.516Z,10.50
2023-02-16T03:48:53.706Z,10.40
2023-02-16T03:49:53.893Z,10.80
2023-02-16T03:50:54.059Z,11.00
2023-02-16T03:51:54.206Z,10.70
2023-02-16T03:52:54.402Z,11.20
2023-02-16T03:53:54.548Z,11.00
2023-02-16T03:54:54.712Z,10.70
2023-02-16T03:55:54.872Z,11.40
2023-02-16T03:56:55.039Z,10.80
2023-02-16T03:57:55.250Z,10.60
2023-02-16T03:58:55.418Z,10.90
2023-02-16T03:59:57.150Z,11.00
2023-02-16T04:00:55.769Z,10.80
2023-02-16T04:01:55.950Z,10.60
2023-02-16T04:02:56.112Z,10.60
2023-02-16T04:03:56.344Z,10.80
2023-02-16T04:04:56.477Z,10.00
2023-02-16T04:05:56.650Z,10.70
2023-02-16T04:06:56.826Z,10.30
2023-02-16T04:07:56.991Z,10.80
2023-02-16T04:08:57.163Z,10.20
2023-02-16T04:09:57.323Z,10.60
2023-02-16T04:10:57.542Z,10.90
2023-02-16T04:11:57.667Z,10.60
2023-02-16T04:12:57.835Z,11.10
2023-02-16T04:13:57.994Z,10.90
2023-02-16T04:14:58.200Z,11.10
2023-02-16T04:15:58.331Z,10.50
2023-02-16T04:16:58.508Z,10.80
2023-02-16T04:17:58.668Z,10.40
2023-02-16T04:18:58.873Z,10.50
2023-02-16T04:19:59.026Z,10.30
2023-02-16T04:20:59.190Z,11.70
2023-02-16T04:21:59.346Z,11.00
2023-02-16T04:22:59.547Z,11.20
2023-02-16T04:23:59.717Z,10.80
2023-02-16T04:24:59.881Z,10.90
2023-02-16T04:26:00.034Z,11.40
2023-02-16T04:27:00.220Z,11.10
2023-02-16T04:28:00.394Z,11.00
2023-02-16T04:29:00.556Z,11.20
2023-02-16T04:30:00.799Z,10.90
2023-02-16T04:31:01.004Z,11.50
2023-02-16T04:32:01.163Z,10.20
2023-02-16T04:33:01.225Z,10.70
2023-02-16T04:34:01.393Z,10.50
2023-02-16T04:35:01.571Z,10.30
2023-02-16T04:36:01.706Z,11.20
2023-02-16T04:37:01.917Z,11.20
2023-02-16T04:38:02.060Z,11.00
2023-02-16T04:39:02.227Z,10.30
2023-02-16T04:40:02.374Z,10.80
2023-02-16T04:41:02.976Z,10.80
2023-02-16T04:42:02.717Z,11.60
2023-02-16T04:43:02.913Z,11.00
2023-02-16T04:44:03.073Z,11.10
2023-02-16T04:45:03.238Z,11.00
2023-02-16T04:46:03.409Z,11.50
2023-02-16T04:47:03.557Z,11.40
2023-02-16T04:48:03.743Z,10.40
2023-02-16T04:49:03.913Z,10.40
2023-02-16T04:50:04.072Z,11.70
2023-02-16T04:51:04.637Z,11.00
2023-02-16T04:52:04.409Z,11.40
2023-02-16T04:53:04.627Z,10.70
2023-02-16T04:54:04.737Z,11.00
2023-02-16T04:55:04.912Z,11.10
2023-02-16T04:56:05.091Z,10.60
2023-02-16T04:57:05.254Z,11.50
2023-02-16T04:58:05.456Z,11.10
2023-02-16T04:59:05.604Z,10.60
2023-02-16T05:00:05.753Z,11.00
2023-02-16T05:01:06.278Z,11.40
2023-02-16T05:02:06.180Z,11.90
2023-02-16T05:03:06.282Z,11.40
2023-02-16T05:04:06.435Z,10.80
2023-02-16T05:05:06.586Z,11.40
2023-02-16T05:06:06.739Z,10.70
2023-02-16T05:07:06.943Z,10.80
2023-02-16T05:08:07.099Z,11.00
2023-02-16T05:09:07.272Z,11.00
2023-02-16T05:10:07.425Z,11.50
2023-02-16T05:11:07.615Z,11.30
2023-02-16T05:12:07.773Z,11.40
2023-02-16T05:13:07.955Z,10.90
2023-02-16T05:14:08.145Z,10.80
2023-02-16T05:15:08.270Z,10.60
2023-02-16T05:16:08.464Z,10.90
2023-02-16T05:17:08.628Z,10.50
2023-02-16T05:18:08.786Z,11.10
2023-02-16T05:19:08.986Z,10.90
2023-02-16T05:20:09.143Z,11.10
2023-02-16T05:21:09.314Z,10.30
2023-02-16T05:22:09.476Z,11.00
2023-02-16T05:23:09.642Z,11.00
2023-02-16T05:24:09.822Z,11.80
2023-02-16T05:25:09.994Z,10.70
2023-02-16T05:26:10.178Z,11.50
2023-02-16T05:27:10.319Z,11.00
2023-02-16T05:28:10.528Z,11.00
2023-02-16T05:29:10.663Z,10.00
2023-02-16T05:30:10.970Z,11.40
2023-02-16T05:31:11.078Z,11.20
2023-02-16T05:32:11.219Z,10.40
2023-02-16T05:33:11.398Z,11.30
2023-02-16T05:34:11.560Z,10.90
2023-02-16T05:35:11.743Z,10.80
2023-02-16T05:36:11.919Z,11.50
2023-02-16T05:37:12.088Z,10.80
2023-02-16T05:38:12.259Z,11.40
2023-02-16T05:39:12.428Z,11.20
2023-02-16T05:40:12.619Z,10.90
2023-02-16T05:41:12.746Z,10.30
2023-02-16T05:42:12.923Z,11.10
2023-02-16T05:43:13.081Z,11.10
2023-02-16T05:44:13.282Z,11.70
2023-02-16T05:45:13.435Z,11.30
2023-02-16T05:46:13.642Z,10.90
2023-02-16T05:47:13.754Z,10.60
2023-02-16T05:48:13.935Z,11.30
2023-02-16T05:49:14.113Z,11.00
2023-02-16T05:50:14.297Z,11.40
2023-02-16T05:51:14.452Z,10.90
2023-02-16T05:52:14.626Z,10.70
2023-02-16T05:53:14.812Z,11.00
2023-02-16T05:54:14.960Z,11.40
2023-02-16T05:55:15.175Z,10.90
2023-02-16T05:56:15.329Z,11.20
2023-02-16T05:57:15.485Z,11.60
2023-02-16T05:58:15.659Z,11.90
2023-02-16T05:59:15.831Z,11.30
2023-02-16T06:00:16.030Z,11.30
2023-02-16T06:01:16.180Z,11.70
2023-02-16T06:02:16.379Z,11.20
2023-02-16T06:03:16.563Z,11.50
2023-02-16T06:04:16.714Z,11.30
2023-02-16T06:05:16.884Z,11.40
2023-02-16T06:06:17.044Z,11.30
2023-02-16T06:07:17.210Z,10.90
2023-02-16T06:08:17.422Z,10.50
2023-02-16T06:09:17.559Z,11.60
2023-02-16T06:10:17.733Z,11.30
2023-02-16T06:11:17.904Z,10.90
2023-02-16T06:12:18.060Z,11.40
2023-02-16T06:13:18.267Z,11.60
2023-02-16T06:14:18.394Z,11.50
2023-02-16T06:15:18.565Z,11.10
2023-02-16T06:16:18.749Z,11.60
2023-02-16T06:17:18.925Z,11.10
2023-02-16T06:18:19.092Z,11.10
2023-02-16T06:19:19.262Z,11.20
2023-02-16T06:20:19.422Z,11.30
2023-02-16T06:21:19.592Z,11.60
2023-02-16T06:22:19.795Z,11.10
2023-02-16T06:23:19.947Z,11.40
2023-02-16T06:24:20.123Z,11.70
2023-02-16T06:25:20.278Z,11.70
2023-02-16T06:26:20.487Z,12.00
2023-02-16T06:27:20.620Z,11.80
2023-02-16T06:28:20.825Z,12.10
2023-02-16T06:29:20.977Z,12.40
2023-02-16T06:30:21.186Z,12.00
2023-02-16T06:31:21.500Z,11.60
2023-02-16T06:32:21.633Z,11.90
2023-02-16T06:33:21.683Z,12.40
2023-02-16T06:34:21.867Z,11.20
2023-02-16T06:35:22.061Z,12.10
2023-02-16T06:36:22.253Z,11.90
2023-02-16T06:37:22.414Z,11.70
2023-02-16T06:38:22.585Z,11.90
2023-02-16T06:39:22.783Z,11.70
2023-02-16T06:40:22.932Z,12.20
2023-02-16T06:41:23.134Z,12.20
2023-02-16T06:42:23.295Z,12.40
2023-02-16T06:43:23.468Z,12.30
2023-02-16T06:44:23.624Z,11.70
2023-02-16T06:45:23.813Z,12.30
2023-02-16T06:46:24.067Z,12.20
2023-02-16T06:47:24.158Z,12.30
2023-02-16T06:48:24.376Z,11.40
2023-02-16T06:49:27.427Z,12.60
2023-02-16T06:50:24.716Z,12.10
2023-02-16T06:51:24.907Z,12.40
2023-02-16T06:52:25.077Z,12.50
2023-02-16T06:53:25.221Z,12.40
2023-02-16T06:54:25.406Z,12.10
2023-02-16T06:55:25.590Z,12.00
2023-02-16T06:56:25.799Z,12.80
2023-02-16T06:57:25.960Z,12.60
2023-02-16T06:58:26.126Z,11.80
2023-02-16T06:59:26.278Z,13.30
2023-02-16T07:00:26.516Z,12.80
2023-02-16T07:01:26.648Z,12.90
2023-02-16T07:02:26.827Z,12.10
2023-02-16T07:03:27.086Z,12.90
2023-02-16T07:04:27.181Z,12.00
2023-02-16T07:05:27.351Z,12.50
2023-02-16T07:06:27.547Z,12.90
2023-02-16T07:07:27.673Z,12.60
2023-02-16T07:08:27.877Z,12.50
2023-02-16T07:09:28.039Z,12.80
2023-02-16T07:10:37.428Z,12.50
2023-02-16T07:11:29.417Z,12.60
2023-02-16T07:12:28.594Z,13.10
2023-02-16T07:13:28.722Z,12.90
2023-02-16T07:14:28.893Z,13.30
2023-02-16T07:15:29.058Z,13.00
2023-02-16T07:16:29.275Z,12.70
2023-02-16T07:17:29.407Z,13.20
2023-02-16T07:18:29.565Z,13.30
2023-02-16T07:19:29.721Z,12.30
2023-02-16T07:20:29.884Z,14.00
2023-02-16T07:21:30.080Z,14.00
2023-02-16T07:22:30.237Z,14.40
2023-02-16T07:23:30.409Z,14.40
2023-02-16T07:24:30.572Z,14.20
2023-02-16T07:25:30.731Z,14.60
2023-02-16T07:26:30.907Z,13.90
2023-02-16T07:27:31.065Z,13.70
2023-02-16T07:28:31.214Z,8.20
2023-02-16T07:29:31.398Z,7.00
2023-02-16T07:30:31.639Z,7.30
2023-02-16T07:31:31.827Z,7.70
2023-02-16T07:32:31.955Z,8.90
2023-02-16T07:33:32.095Z,7.10
2023-02-16T07:34:32.265Z,8.30
2023-02-16T07:35:32.480Z,9.00
2023-02-16T07:36:32.622Z,8.50
2023-02-16T07:37:32.788Z,8.70
2023-02-16T07:38:32.969Z,8.10
2023-02-16T07:39:33.144Z,10.40
2023-02-16T07:40:33.326Z,11.30
2023-02-16T07:41:33.466Z,10.80
2023-02-16T07:42:33.637Z,11.10
2023-02-16T07:43:33.779Z,11.20
2023-02-16T07:44:33.962Z,11.20
2023-02-16T07:45:34.223Z,10.70
2023-02-16T07:46:34.289Z,12.00
2023-02-16T07:47:34.443Z,12.70
2023-02-16T07:48:34.643Z,12.70
2023-02-16T07:49:34.811Z,14.10
2023-02-16T07:50:34.963Z,13.10
2023-02-16T07:51:35.170Z,13.50
2023-02-16T07:52:35.316Z,13.00
2023-02-16T07:53:35.472Z,13.90
2023-02-16T07:54:35.671Z,13.40
2023-02-16T07:55:35.801Z,13.60
2023-02-16T07:56:35.987Z,14.00
2023-02-16T07:57:36.144Z,13.70
2023-02-16T07:58:36.334Z,15.40
2023-02-16T07:59:36.510Z,15.10
2023-02-16T08:00:36.693Z,14.70
2023-02-16T08:01:36.850Z,14.90
2023-02-16T08:02:37.128Z,14.00
2023-02-16T08:03:37.202Z,14.50
2023-02-16T08:04:37.389Z,14.40
2023-02-16T08:05:37.543Z,14.20
2023-02-16T08:06:37.754Z,14.60
2023-02-16T08:07:37.902Z,15.00
2023-02-16T08:08:38.097Z,14.30
2023-02-16T08:09:38.230Z,14.40
2023-02-16T08:10:38.426Z,15.50
2023-02-16T08:11:38.581Z,14.40
2023-02-16T08:12:38.771Z,14.30
2023-02-16T08:13:38.922Z,14.40
2023-02-16T08:14:39.097Z,15.10
2023-02-16T08:15:40.239Z,14.60
2023-02-16T08:16:39.474Z,14.50
2023-02-16T08:17:39.663Z,14.20
2023-02-16T08:18:39.767Z,14.50
2023-02-16T08:19:39.916Z,15.00
2023-02-16T08:21:02.822Z,15.10
2023-02-16T08:21:41.243Z,14.80
2023-02-16T08:22:40.438Z,14.50
2023-02-16T08:23:40.598Z,14.10
2023-02-16T08:24:40.779Z,14.40
2023-02-16T08:25:40.951Z,14.30
2023-02-16T08:26:41.133Z,14.90
2023-02-16T08:27:41.305Z,15.40
2023-02-16T08:28:41.466Z,14.80
2023-02-16T08:29:41.676Z,14.80
2023-02-16T08:30:41.829Z,14.80
2023-02-16T08:31:42.104Z,14.90
2023-02-16T08:32:42.163Z,14.60
2023-02-16T08:33:42.321Z,14.80
2023-02-16T08:34:43.494Z,14.30
2023-02-16T08:35:42.650Z,15.10
2023-02-16T08:36:42.812Z,14.50
2023-02-16T08:37:43.012Z,14.20
2023-02-16T08:38:43.200Z,15.40
2023-02-16T08:39:43.349Z,14.30
2023-02-16T08:40:43.516Z,14.30
2023-02-16T08:41:43.690Z,14.20
2023-02-16T08:42:43.880Z,14.40
2023-02-16T08:43:44.121Z,13.90
2023-02-16T08:44:44.275Z,14.20
2023-02-16T08:45:44.501Z,14.40
2023-02-16T08:46:44.632Z,14.40
2023-02-16T08:47:44.806Z,13.40
2023-02-16T08:48:44.979Z,13.80
2023-02-16T08:49:45.116Z,12.60
2023-02-16T08:50:45.268Z,12.70
2023-02-16T08:51:45.469Z,13.10
2023-02-16T08:52:45.652Z,11.60
2023-02-16T08:53:45.808Z,10.90
2023-02-16T08:54:45.969Z,11.00
2023-02-16T08:55:46.618Z,12.70
2023-02-16T08:56:46.309Z,11.40
2023-02-16T08:57:46.481Z,11.30
2023-02-16T08:58:47.139Z,10.70
2023-02-16T08:59:46.802Z,11.90
2023-02-16T09:00:46.989Z,9.40
2023-02-16T09:01:47.168Z,11.60
2023-02-16T09:02:47.455Z,11.30
2023-02-16T09:03:47.525Z,10.40
2023-02-16T09:04:48.828Z,9.60
2023-02-16T09:05:47.915Z,11.10
2023-02-16T09:06:48.084Z,11.00
2023-02-16T09:07:48.254Z,9.30
2023-02-16T09:08:48.398Z,8.90
2023-02-16T09:09:48.582Z,10.00
2023-02-16T09:10:49.718Z,10.20
2023-02-16T09:11:48.953Z,10.70
2023-02-16T09:12:49.072Z,8.70
2023-02-16T09:13:49.256Z,9.50
2023-02-16T09:14:49.426Z,9.50
2023-02-16T09:15:49.610Z,9.80
2023-02-16T09:16:49.862Z,8.10
2023-02-16T09:17:49.967Z,8.20
2023-02-16T09:18:50.134Z,8.90
2023-02-16T09:19:50.313Z,7.20
2023-02-16T09:20:50.488Z,8.50
2023-02-16T09:21:50.739Z,9.70
2023-02-16T09:22:50.871Z,8.70
2023-02-16T09:23:51.066Z,7.20
2023-02-16T09:24:51.218Z,9.10
2023-02-16T09:25:51.394Z,8.30
2023-02-16T09:26:51.619Z,10.20
2023-02-16T09:27:51.735Z,8.20
2023-02-16T09:28:51.948Z,8.20
2023-02-16T09:29:52.147Z,10.20
2023-02-16T09:30:52.326Z,10.60
2023-02-16T09:31:52.550Z,11.00
2023-02-16T09:32:52.596Z,7.40
2023-02-16T09:33:52.760Z,10.20
2023-02-16T09:34:52.991Z,9.60
2023-02-16T09:35:53.117Z,10.40
2023-02-16T09:36:53.335Z,7.30
2023-02-16T09:37:53.488Z,9.80
2023-02-16T09:38:53.653Z,7.30
2023-02-16T09:39:53.845Z,7.60
2023-02-16T09:40:54.006Z,10.50
2023-02-16T09:41:54.236Z,7.00
2023-02-16T09:42:54.349Z,8.40
2023-02-16T09:43:54.538Z,7.90
2023-02-16T09:44:54.729Z,9.50
2023-02-16T09:45:54.949Z,7.10
2023-02-16T09:46:55.079Z,8.90
2023-02-16T09:47:55.218Z,9.20
2023-02-16T09:48:55.398Z,9.60
2023-02-16T09:49:55.565Z,9.60
2023-02-16T09:50:55.800Z,8.80
2023-02-16T09:51:55.951Z,7.70
2023-02-16T09:52:56.109Z,8.80
2023-02-16T09:53:56.283Z,8.70
2023-02-16T09:54:56.458Z,9.10
2023-02-16T09:55:56.642Z,9.50
2023-02-16T09:56:56.820Z,8.20
2023-02-16T09:57:57.051Z,9.60
2023-02-16T09:58:57.159Z,8.10
2023-02-16T09:59:57.347Z,8.90
2023-02-16T10:00:57.516Z,8.50
2023-02-16T10:01:57.702Z,8.10
2023-02-16T10:02:57.866Z,7.30
2023-02-16T10:03:58.047Z,7.80
2023-02-16T10:04:58.243Z,8.80
2023-02-16T10:05:58.409Z,8.70
2023-02-16T10:06:58.592Z,9.60
2023-02-16T10:07:58.751Z,9.80
2023-02-16T10:08:58.944Z,10.60
2023-02-16T10:09:59.120Z,10.30
2023-02-16T10:10:59.271Z,10.40
2023-02-16T10:11:59.462Z,10.80
2023-02-16T10:12:59.612Z,11.10
2023-02-16T10:13:59.793Z,11.30
2023-02-16T10:14:59.955Z,11.30
2023-02-16T10:16:00.201Z,10.60
2023-02-16T10:17:00.304Z,11.60
2023-02-16T10:18:00.536Z,10.50
2023-02-16T10:19:00.656Z,10.20
2023-02-16T10:20:00.860Z,10.10
2023-02-16T10:21:01.009Z,10.70
2023-02-16T10:22:01.147Z,11.90
2023-02-16T10:23:01.351Z,11.10
2023-02-16T10:24:01.536Z,11.30
2023-02-16T10:25:01.709Z,10.60
2023-02-16T10:26:01.880Z,11.20
2023-02-16T10:27:02.039Z,10.90
2023-02-16T10:28:02.205Z,11.20
2023-02-16T10:29:02.372Z,11.30
2023-02-16T10:30:02.597Z,11.70
2023-02-16T10:31:03.285Z,10.90
2023-02-16T10:32:02.992Z,11.90
2023-02-16T10:33:03.070Z,12.00
2023-02-16T10:34:03.237Z,11.70
2023-02-16T10:35:03.382Z,11.40
2023-02-16T10:36:03.542Z,11.80
2023-02-16T10:37:03.731Z,11.30
2023-02-16T10:38:03.904Z,12.50
2023-02-16T10:39:04.079Z,10.90
2023-02-16T10:40:04.254Z,11.40
2023-02-16T10:41:04.722Z,11.40
2023-02-16T10:42:04.602Z,11.10
2023-02-16T10:43:04.785Z,11.00
2023-02-16T10:44:04.983Z,11.50
2023-02-16T10:45:05.144Z,11.20
2023-02-16T10:46:05.377Z,11.10
2023-02-16T10:47:05.510Z,11.70
2023-02-16T10:48:05.691Z,10.70
2023-02-16T10:49:05.890Z,10.90
2023-02-16T10:50:06.090Z,11.40
2023-02-16T10:51:06.534Z,10.90
2023-02-16T10:52:06.436Z,10.80
2023-02-16T10:53:06.591Z,10.80
2023-02-16T10:54:06.741Z,10.40
2023-02-16T10:55:06.957Z,11.00
2023-02-16T10:56:07.142Z,10.90
2023-02-16T10:57:07.294Z,10.40
2023-02-16T10:58:07.502Z,10.30
2023-02-16T10:59:07.624Z,10.70
2023-02-16T11:00:07.825Z,10.70
2023-02-16T11:01:08.028Z,11.00
2023-02-16T11:02:08.184Z,10.80
2023-02-16T11:03:08.328Z,10.30
2023-02-16T11:04:08.538Z,11.00
2023-02-16T11:05:08.697Z,11.10
2023-02-16T11:06:08.890Z,10.70
2023-02-16T11:07:09.034Z,10.30
2023-02-16T11:08:09.219Z,10.70
2023-02-16T11:09:09.394Z,11.10
2023-02-16T11:10:09.569Z,10.60
2023-02-16T11:11:09.753Z,11.10
2023-02-16T11:12:09.939Z,11.40
2023-02-16T11:13:10.082Z,11.30
2023-02-16T11:14:10.293Z,10.80
2023-02-16T11:15:10.443Z,10.50
2023-02-16T11:16:10.716Z,10.60
2023-02-16T11:17:10.802Z,10.30
2023-02-16T11:18:10.992Z,10.80
2023-02-16T11:19:11.178Z,13.00
2023-02-16T11:20:11.384Z,11.70
2023-02-16T11:21:11.569Z,10.80
2023-02-16T11:22:11.724Z,11.00
2023-02-16T11:23:11.875Z,10.60
2023-02-16T11:24:12.072Z,11.60
2023-02-16T11:25:12.216Z,10.70
2023-02-16T11:26:12.455Z,10.80
2023-02-16T11:27:12.595Z,9.80
2023-02-16T11:28:12.776Z,10.60
2023-02-16T11:29:12.957Z,10.60
2023-02-16T11:30:13.169Z,11.20
2023-02-16T11:31:13.430Z,11.30
2023-02-16T11:32:13.524Z,11.00
2023-02-16T11:33:13.641Z,10.80
2023-02-16T11:34:13.834Z,11.00
2023-02-16T11:35:14.013Z,10.50
2023-02-16T11:36:14.264Z,10.70
2023-02-16T11:37:14.385Z,10.70
2023-02-16T11:38:14.568Z,10.30
2023-02-16T11:39:14.754Z,11.10
2023-02-16T11:40:14.921Z,10.70
2023-02-16T11:41:15.085Z,10.00
2023-02-16T11:42:15.244Z,10.40
2023-02-16T11:43:15.379Z,11.10
2023-02-16T11:44:15.596Z,11.20
2023-02-16T11:45:15.749Z,10.70
2023-02-16T11:46:15.966Z,10.60
2023-02-16T11:47:16.117Z,9.90
2023-02-16T11:48:16.280Z,10.60
2023-02-16T11:49:16.467Z,10.60
2023-02-16T11:50:16.685Z,10.70
2023-02-16T11:51:16.835Z,10.50
2023-02-16T11:52:17.023Z,11.50
2023-02-16T11:53:17.191Z,10.00
2023-02-16T11:54:17.347Z,10.10
2023-02-16T11:55:17.527Z,10.50
2023-02-16T11:56:17.687Z,10.40
2023-02-16T11:57:17.842Z,10.20
2023-02-16T11:58:18.050Z,10.40
2023-02-16T11:59:18.190Z,11.80
2023-02-16T12:00:18.358Z,10.20
2023-02-16T12:01:18.511Z,9.50
2023-02-16T12:02:18.714Z,10.00
2023-02-16T12:03:18.861Z,10.40
2023-02-16T12:04:19.066Z,9.80
2023-02-16T12:05:19.247Z,11.10
2023-02-16T12:06:19.392Z,10.10
2023-02-16T12:07:19.561Z,9.80
2023-02-16T12:08:19.749Z,10.50
2023-02-16T12:09:19.878Z,10.40
2023-02-16T12:10:20.074Z,10.50
2023-02-16T12:11:20.236Z,10.00
2023-02-16T12:13:35.499Z,9.70
2023-02-16T12:14:36.724Z,10.00
2023-02-16T12:15:35.854Z,10.60
2023-02-16T12:16:36.091Z,11.60
2023-02-16T12:17:36.233Z,10.10
2023-02-16T12:18:36.405Z,10.60
2023-02-16T12:19:36.550Z,10.50
2023-02-16T12:20:36.743Z,10.80
2023-02-16T12:21:36.892Z,10.20
2023-02-16T12:22:37.102Z,11.60
2023-02-16T12:23:37.252Z,9.60
2023-02-16T12:24:37.467Z,10.10
2023-02-16T12:25:37.609Z,10.20
2023-02-16T12:26:37.806Z,9.70
2023-02-16T12:27:37.959Z,9.50
2023-02-16T12:28:38.156Z,8.60
2023-02-16T12:29:38.317Z,10.40
2023-02-16T12:30:38.579Z,9.20
2023-02-16T12:31:38.742Z,9.40
2023-02-16T12:32:38.882Z,11.20
2023-02-16T12:33:39.031Z,11.20
2023-02-16T12:34:39.218Z,10.00
2023-02-16T12:35:39.423Z,11.00
2023-02-16T12:36:39.570Z,11.30
2023-02-16T12:37:39.782Z,11.00
2023-02-16T12:38:39.907Z,11.70
2023-02-16T12:39:40.059Z,10.10
2023-02-16T12:40:40.247Z,9.50
2023-02-16T12:41:40.454Z,10.00
2023-02-16T12:42:40.627Z,9.50
2023-02-16T12:43:40.767Z,9.50
2023-02-16T12:44:40.947Z,10.30
2023-02-16T12:45:41.213Z,9.90
2023-02-16T12:46:41.318Z,9.30
2023-02-16T12:47:41.459Z,8.80
2023-02-16T12:48:41.638Z,8.90
2023-02-16T12:49:41.826Z,9.40
2023-02-16T12:50:42.000Z,9.40
2023-02-16T12:51:42.197Z,10.10
2023-02-16T12:52:42.349Z,8.20
2023-02-16T12:53:42.534Z,8.70
2023-02-16T12:54:42.670Z,7.70
2023-02-16T12:55:42.883Z,9.80
2023-02-16T12:56:43.015Z,8.60
2023-02-16T12:57:43.206Z,9.30
2023-02-16T12:58:43.356Z,8.40
2023-02-16T12:59:43.539Z,9.30